Time,TemperatureF,DewpointF,PressureIn,WindDirection,WindDirectionDegrees,WindSpeedMPH,WindSpeedGustMPH,Humidity,HourlyPrecipIn,Conditions,Clouds,dailyrainin,SoftwareType,DateUTC
2013-02-11 00:02:00,9.3,-15.9,30.27,ESE,117,0.0,0.0,30,0.00,,,0.18,Wunderground v.1.13,2013-02-11 05:02:00,
2013-02-11 00:07:00,9.2,-13.6,30.27,ESE,117,0.0,0.0,34,0.00,,,0.00,Wunderground v.1.13,2013-02-11 05:07:00,
2013-02-11 00:17:00,9.2,-12.4,30.27,ESE,117,0.0,0.0,36,0.00,,,0.00,Wunderground v.1.13,2013-02-11 05:17:00,
2013-02-11 00:27:00,9.0,-12.6,30.26,ESE,117,0.0,0.0,36,0.00,,,0.00,Wunderground v.1.13,2013-02-11 05:27:00,
2013-02-11 00:32:00,8.8,-12.2,30.26,ESE,117,0.0,0.0,37,0.00,,,0.00,Wunderground v.1.13,2013-02-11 05:32:00,
2013-02-11 00:37:00,8.8,-10.7,30.26,ESE,117,0.0,0.0,40,0.00,,,0.00,Wunderground v.1.13,2013-02-11 05:37:00,
2013-02-11 00:42:00,9.0,-9.5,30.26,ESE,117,0.0,0.0,42,0.00,,,0.00,Wunderground v.1.13,2013-02-11 05:42:00,
2013-02-11 00:47:00,9.3,-8.3,30.26,ESE,117,0.0,0.0,44,0.00,,,0.00,Wunderground v.1.13,2013-02-11 05:47:00,
2013-02-11 00:57:00,9.5,-8.1,30.25,ESE,117,0.0,0.0,44,0.00,,,0.00,Wunderground v.1.13,2013-02-11 05:57:00,
2013-02-11 01:03:00,9.7,-7.9,30.25,ESE,117,0.0,1.0,44,0.00,,,0.00,Wunderground v.1.13,2013-02-11 06:03:00,
2013-02-11 01:07:00,9.9,-7.7,30.24,ESE,117,0.0,0.0,44,0.00,,,0.00,Wunderground v.1.13,2013-02-11 06:07:00,
2013-02-11 01:17:00,9.9,-8.2,30.24,ESE,117,0.0,0.0,43,0.00,,,0.00,Wunderground v.1.13,2013-02-11 06:17:00,
2013-02-11 01:22:00,9.9,-8.7,30.23,ESE,117,0.0,0.0,42,0.00,,,0.00,Wunderground v.1.13,2013-02-11 06:22:00,
2013-02-11 01:27:00,9.9,-8.7,30.23,ESE,117,0.0,0.0,42,0.00,,,0.00,Wunderground v.1.13,2013-02-11 06:27:00,
2013-02-11 01:32:00,9.7,-9.3,30.23,ESE,117,0.0,0.0,41,0.00,,,0.00,Wunderground v.1.13,2013-02-11 06:32:00,
2013-02-11 01:37:00,9.7,-8.8,30.23,ESE,117,0.0,0.0,42,0.00,,,0.00,Wunderground v.1.13,2013-02-11 06:37:00,
2013-02-11 01:42:00,9.7,-8.8,30.23,ESE,117,0.0,0.0,42,0.00,,,0.00,Wunderground v.1.13,2013-02-11 06:42:00,
2013-02-11 01:47:00,9.7,-8.4,30.23,ESE,117,0.0,0.0,43,0.00,,,0.00,Wunderground v.1.13,2013-02-11 06:47:00,
2013-02-11 01:52:00,9.7,-8.8,30.23,ESE,117,0.0,0.0,42,0.00,,,0.00,Wunderground v.1.13,2013-02-11 06:52:00,
2013-02-11 02:02:00,9.5,-9.0,30.23,ESE,117,0.0,0.0,42,0.00,,,0.00,Wunderground v.1.13,2013-02-11 07:02:00,
2013-02-11 02:07:00,9.5,-9.0,30.22,ESE,117,0.0,0.0,42,0.00,,,0.00,Wunderground v.1.13,2013-02-11 07:07:00,
2013-02-11 02:12:00,9.5,-9.0,30.22,ESE,117,0.0,0.0,42,0.00,,,0.00,Wunderground v.1.13,2013-02-11 07:12:00,
2013-02-11 02:17:00,9.5,-8.1,30.22,ESE,117,0.0,0.0,44,0.00,,,0.00,Wunderground v.1.13,2013-02-11 07:17:00,
2013-02-11 02:22:00,9.7,-7.9,30.21,ESE,117,0.0,0.0,44,0.00,,,0.00,Wunderground v.1.13,2013-02-11 07:22:00,
2013-02-11 02:27:00,9.5,-8.1,30.21,ESE,117,0.0,0.0,44,0.00,,,0.00,Wunderground v.1.13,2013-02-11 07:27:00,
2013-02-11 02:32:00,9.5,-8.1,30.21,ESE,117,0.0,0.0,44,0.00,,,0.00,Wunderground v.1.13,2013-02-11 07:32:00,
2013-02-11 02:37:00,9.7,-7.4,30.20,ESE,117,0.0,0.0,45,0.00,,,0.00,Wunderground v.1.13,2013-02-11 07:37:00,
2013-02-11 02:42:00,9.7,-7.4,30.20,ESE,117,0.0,0.0,45,0.00,,,0.00,Wunderground v.1.13,2013-02-11 07:42:00,
2013-02-11 02:52:00,9.9,-7.2,30.20,ESE,117,0.0,0.0,45,0.00,,,0.00,Wunderground v.1.13,2013-02-11 07:52:00,
2013-02-11 02:57:00,9.9,-7.7,30.20,ESE,117,0.0,0.0,44,0.00,,,0.00,Wunderground v.1.13,2013-02-11 07:57:00,
2013-02-11 03:03:00,9.9,-7.7,30.20,ESE,117,0.0,0.0,44,0.00,,,0.00,Wunderground v.1.13,2013-02-11 08:03:00,
2013-02-11 03:12:00,10.0,-7.6,30.20,ESE,117,0.0,0.0,44,0.00,,,0.00,Wunderground v.1.13,2013-02-11 08:12:00,
2013-02-11 03:17:00,10.0,-7.6,30.20,ESE,117,0.0,0.0,44,0.00,,,0.00,Wunderground v.1.13,2013-02-11 08:17:00,
2013-02-11 03:22:00,10.4,-6.3,30.19,ESE,117,0.0,0.0,46,0.00,,,0.00,Wunderground v.1.13,2013-02-11 08:22:00,
2013-02-11 03:27:00,10.5,-6.7,30.19,ESE,117,0.0,0.0,45,0.00,,,0.00,Wunderground v.1.13,2013-02-11 08:27:00,
2013-02-11 03:32:00,10.5,-6.7,30.19,ESE,117,0.0,0.0,45,0.00,,,0.00,Wunderground v.1.13,2013-02-11 08:32:00,
2013-02-11 03:37:00,10.7,-7.4,30.19,ESE,117,0.0,0.0,43,0.00,,,0.00,Wunderground v.1.13,2013-02-11 08:37:00,
2013-02-11 03:42:00,11.1,-6.6,30.19,ESE,117,0.0,1.0,44,0.00,,,0.00,Wunderground v.1.13,2013-02-11 08:42:00,
2013-02-11 03:52:00,11.4,-7.3,30.18,ESE,117,0.0,1.0,42,0.00,,,0.00,Wunderground v.1.13,2013-02-11 08:52:00,
2013-02-11 04:02:00,11.4,-7.8,30.18,ESE,117,0.0,0.0,41,0.00,,,0.00,Wunderground v.1.13,2013-02-11 09:02:00,
2013-02-11 04:12:00,11.6,-8.1,30.17,ESE,117,1.0,1.0,40,0.00,,,0.00,Wunderground v.1.13,2013-02-11 09:12:00,
2013-02-11 04:22:00,11.7,-8.0,30.16,ESE,117,0.0,0.0,40,0.00,,,0.00,Wunderground v.1.13,2013-02-11 09:22:00,
2013-02-11 04:27:00,11.7,-8.5,30.16,ESE,117,0.0,0.0,39,0.00,,,0.00,Wunderground v.1.13,2013-02-11 09:27:00,
2013-02-11 04:32:00,11.7,-8.5,30.16,ESE,117,0.0,0.0,39,0.00,,,0.00,Wunderground v.1.13,2013-02-11 09:32:00,
2013-02-11 04:37:00,11.7,-9.1,30.16,ESE,117,0.0,0.0,38,0.00,,,0.00,Wunderground v.1.13,2013-02-11 09:37:00,
2013-02-11 04:42:00,11.7,-9.6,30.16,ESE,117,0.0,0.0,37,0.00,,,0.00,Wunderground v.1.13,2013-02-11 09:42:00,
2013-02-11 04:47:00,11.9,-8.9,30.16,ESE,117,0.0,0.0,38,0.00,,,0.00,Wunderground v.1.13,2013-02-11 09:47:00,
2013-02-11 04:52:00,12.1,-8.2,30.15,ESE,117,0.0,0.0,39,0.00,,,0.00,Wunderground v.1.13,2013-02-11 09:52:00,
2013-02-11 04:57:00,12.3,-8.0,30.15,ESE,117,0.0,0.0,39,0.00,,,0.00,Wunderground v.1.13,2013-02-11 09:57:00,
2013-02-11 05:02:00,12.4,-8.4,30.15,ESE,117,0.0,0.0,38,0.00,,,0.00,Wunderground v.1.13,2013-02-11 10:02:00,
2013-02-11 05:12:00,12.4,-10.1,30.14,ESE,117,0.0,0.0,35,0.00,,,0.00,Wunderground v.1.13,2013-02-11 10:12:00,
2013-02-11 05:17:00,12.4,-10.7,30.14,ESE,117,0.0,0.0,34,0.00,,,0.00,Wunderground v.1.13,2013-02-11 10:17:00,
2013-02-11 05:22:00,12.6,-10.5,30.15,ESE,117,0.0,0.0,34,0.00,,,0.00,Wunderground v.1.13,2013-02-11 10:22:00,
2013-02-11 05:32:00,12.9,-10.3,30.15,ESE,117,0.0,0.0,34,0.00,,,0.00,Wunderground v.1.13,2013-02-11 10:32:00,
2013-02-11 05:37:00,12.9,-10.9,30.15,ESE,117,0.0,0.0,33,0.00,,,0.00,Wunderground v.1.13,2013-02-11 10:37:00,
2013-02-11 05:42:00,13.1,-11.3,30.15,ESE,117,0.0,2.0,32,0.00,,,0.00,Wunderground v.1.13,2013-02-11 10:42:00,
2013-02-11 05:47:00,12.9,-13.4,30.15,ESE,117,0.0,0.0,29,0.00,,,0.00,Wunderground v.1.13,2013-02-11 10:47:00,
2013-02-11 05:52:00,13.1,-13.3,30.15,ESE,117,0.0,0.0,29,0.00,,,0.00,Wunderground v.1.13,2013-02-11 10:52:00,
2013-02-11 05:57:00,13.1,-12.6,30.15,ESE,117,0.0,0.0,30,0.00,,,0.00,Wunderground v.1.13,2013-02-11 10:57:00,
2013-02-11 06:03:00,13.3,-12.4,30.15,ESE,117,0.0,0.0,30,0.00,,,0.00,Wunderground v.1.13,2013-02-11 11:03:00,
2013-02-11 06:07:00,13.5,-11.6,30.14,ESE,117,0.0,0.0,31,0.00,,,0.00,Wunderground v.1.13,2013-02-11 11:07:00,
2013-02-11 06:12:00,13.6,-10.9,30.14,ESE,117,0.0,1.0,32,0.00,,,0.00,Wunderground v.1.13,2013-02-11 11:12:00,
2013-02-11 06:17:00,13.6,-10.9,30.14,ESE,117,1.0,1.0,32,0.00,,,0.00,Wunderground v.1.13,2013-02-11 11:17:00,
2013-02-11 06:22:00,13.5,-12.2,30.13,ESE,117,2.0,2.0,30,0.00,,,0.00,Wunderground v.1.13,2013-02-11 11:22:00,
2013-02-11 06:27:00,13.6,-11.5,30.13,ESE,117,1.0,1.0,31,0.00,,,0.00,Wunderground v.1.13,2013-02-11 11:27:00,
2013-02-11 06:32:00,13.6,-11.5,30.13,ESE,117,0.0,0.0,31,0.00,,,0.00,Wunderground v.1.13,2013-02-11 11:32:00,
2013-02-11 06:37:00,13.8,-11.3,30.13,ESE,117,0.0,1.0,31,0.00,,,0.00,Wunderground v.1.13,2013-02-11 11:37:00,
2013-02-11 06:42:00,14.0,-11.1,30.13,ESE,117,0.0,0.0,31,0.00,,,0.00,Wunderground v.1.13,2013-02-11 11:42:00,
2013-02-11 06:47:00,14.1,-11.7,30.13,ESE,117,0.0,0.0,30,0.00,,,0.00,Wunderground v.1.13,2013-02-11 11:47:00,
2013-02-11 06:52:00,14.1,-11.7,30.11,ESE,117,0.0,0.0,30,0.00,,,0.00,Wunderground v.1.13,2013-02-11 11:52:00,
2013-02-11 06:57:00,14.4,-10.8,30.11,ESE,117,1.0,2.0,31,0.00,,,0.00,Wunderground v.1.13,2013-02-11 11:57:00,
2013-02-11 07:03:00,14.4,-10.8,30.11,ESE,117,1.0,1.0,31,0.00,,,0.00,Wunderground v.1.13,2013-02-11 12:03:00,
2013-02-11 07:07:00,14.4,-13.6,30.10,ESE,117,1.0,1.0,27,0.00,,,0.00,Wunderground v.1.13,2013-02-11 12:07:00,
2013-02-11 07:12:00,14.4,-15.1,30.10,ESE,117,1.0,1.0,25,0.00,,,0.00,Wunderground v.1.13,2013-02-11 12:12:00,
2013-02-11 07:17:00,14.4,-15.9,30.10,ESE,117,1.0,1.0,24,0.00,,,0.00,Wunderground v.1.13,2013-02-11 12:17:00,
2013-02-11 07:27:00,14.6,-18.3,30.10,ESE,117,0.0,0.0,21,0.00,,,0.00,Wunderground v.1.13,2013-02-11 12:27:00,
2013-02-11 07:32:00,14.8,-18.2,30.10,ESE,117,0.0,0.0,21,0.00,,,0.00,Wunderground v.1.13,2013-02-11 12:32:00,
2013-02-11 07:37:00,14.9,-20.0,30.10,ESE,117,1.0,1.0,19,0.00,,,0.00,Wunderground v.1.13,2013-02-11 12:37:00,
2013-02-11 07:42:00,15.2,-17.8,30.10,ESE,117,1.0,1.0,21,0.00,,,0.00,Wunderground v.1.13,2013-02-11 12:42:00,
2013-02-11 07:52:00,15.9,-22.5,30.10,ESE,117,1.0,1.0,16,0.00,,,0.00,Wunderground v.1.13,2013-02-11 12:52:00,
2013-02-11 07:57:00,16.2,-23.5,30.10,ESE,117,1.0,1.0,15,0.00,,,0.00,Wunderground v.1.13,2013-02-11 12:57:00,
2013-02-11 08:03:00,16.4,-27.5,30.10,ESE,117,1.0,2.0,12,0.00,,,0.00,Wunderground v.1.13,2013-02-11 13:03:00,
2013-02-11 08:07:00,16.4,-29.1,30.09,ESE,117,1.0,1.0,11,0.00,,,0.00,Wunderground v.1.13,2013-02-11 13:07:00,
2013-02-11 08:12:00,16.4,-29.1,30.09,ESE,117,1.0,1.0,11,0.00,,,0.00,Wunderground v.1.13,2013-02-11 13:12:00,
2013-02-11 08:22:00,16.5,-32.7,30.07,NW,318,2.0,2.0,9,0.00,,,0.00,Wunderground v.1.13,2013-02-11 13:22:00,
2013-02-11 08:27:00,16.5,-32.7,30.07,NW,311,1.0,1.0,9,0.00,,,0.00,Wunderground v.1.13,2013-02-11 13:27:00,
2013-02-11 08:32:00,16.5,-30.8,30.07,NW,311,1.0,2.0,10,0.00,,,0.00,Wunderground v.1.13,2013-02-11 13:32:00,
2013-02-11 08:37:00,16.5,-29.0,30.07,West,281,1.0,1.0,11,0.00,,,0.00,Wunderground v.1.13,2013-02-11 13:37:00,
2013-02-11 08:42:00,16.5,-29.0,30.07,West,281,1.0,1.0,11,0.00,,,0.00,Wunderground v.1.13,2013-02-11 13:42:00,
2013-02-11 08:52:00,16.5,-24.5,30.06,West,281,1.0,1.0,14,0.00,,,0.00,Wunderground v.1.13,2013-02-11 13:52:00,
2013-02-11 08:57:00,16.5,-19.7,30.06,West,281,1.0,1.0,18,0.00,,,0.00,Wunderground v.1.13,2013-02-11 13:57:00,
2013-02-11 09:03:00,16.5,-17.7,30.06,West,281,1.0,1.0,20,0.00,,,0.00,Wunderground v.1.13,2013-02-11 14:03:00,
2013-02-11 09:07:00,16.7,-13.9,30.05,West,281,1.0,1.0,24,0.00,,,0.00,Wunderground v.1.13,2013-02-11 14:07:00,
2013-02-11 09:12:00,16.9,-11.4,30.05,West,281,0.0,0.0,27,0.00,,,0.00,Wunderground v.1.13,2013-02-11 14:12:00,
2013-02-11 09:17:00,17.0,-11.3,30.05,West,281,0.0,0.0,27,0.00,,,0.00,Wunderground v.1.13,2013-02-11 14:17:00,
2013-02-11 09:22:00,17.0,-9.9,30.04,West,281,0.0,0.0,29,0.00,,,0.00,Wunderground v.1.13,2013-02-11 14:22:00,
2013-02-11 09:27:00,17.2,-7.7,30.04,West,281,1.0,1.0,32,0.00,,,0.00,Wunderground v.1.13,2013-02-11 14:27:00,
2013-02-11 09:32:00,17.2,-5.2,30.04,West,281,1.0,1.0,36,0.00,,,0.00,Wunderground v.1.13,2013-02-11 14:32:00,
2013-02-11 09:37:00,17.3,-5.1,30.03,West,281,0.0,0.0,36,0.00,,,0.00,Wunderground v.1.13,2013-02-11 14:37:00,
2013-02-11 09:42:00,17.3,-4.6,30.03,West,281,1.0,1.0,37,0.00,,,0.00,Wunderground v.1.13,2013-02-11 14:42:00,
2013-02-11 09:47:00,17.5,-4.4,30.03,West,281,1.0,2.0,37,0.00,,,0.00,Wunderground v.1.13,2013-02-11 14:47:00,
2013-02-11 09:52:00,17.7,-2.6,30.02,West,281,0.0,2.0,40,0.00,,,0.00,Wunderground v.1.13,2013-02-11 14:52:00,
2013-02-11 09:57:00,17.7,-1.5,30.02,West,281,1.0,2.0,42,0.00,,,0.00,Wunderground v.1.13,2013-02-11 14:57:00,
2013-02-11 10:03:00,17.7,0.4,30.02,West,281,1.0,1.0,46,0.00,,,0.00,Wunderground v.1.13,2013-02-11 15:03:00,
2013-02-11 10:12:00,17.5,2.8,30.01,West,281,1.0,3.0,52,0.00,,,0.00,Wunderground v.1.13,2013-02-11 15:12:00,
2013-02-11 10:17:00,17.5,4.1,30.01,West,281,2.0,2.0,55,0.00,,,0.00,Wunderground v.1.13,2013-02-11 15:17:00,
2013-02-11 10:27:00,17.7,6.5,30.00,West,281,1.0,1.0,61,0.00,,,0.00,Wunderground v.1.13,2013-02-11 15:27:00,
2013-02-11 10:32:00,17.8,6.6,30.00,West,281,1.0,1.0,61,0.00,,,0.00,Wunderground v.1.13,2013-02-11 15:32:00,
2013-02-11 10:37:00,18.0,7.5,29.99,West,281,1.0,1.0,63,0.00,,,0.00,Wunderground v.1.13,2013-02-11 15:37:00,
2013-02-11 10:42:00,18.1,8.0,29.99,West,281,1.0,1.0,64,0.00,,,0.00,Wunderground v.1.13,2013-02-11 15:42:00,
2013-02-11 10:52:00,18.4,8.9,29.98,West,281,1.0,1.0,66,0.00,,,0.00,Wunderground v.1.13,2013-02-11 15:52:00,
2013-02-11 10:57:00,18.4,9.3,29.98,West,281,2.0,2.0,67,0.00,,,0.00,Wunderground v.1.13,2013-02-11 15:57:00,
2013-02-11 11:03:00,18.6,9.5,29.98,WNW,288,2.0,3.0,67,0.00,,,0.00,Wunderground v.1.13,2013-02-11 16:03:00,
2013-02-11 11:12:00,18.8,10.0,29.96,WNW,289,3.0,3.0,68,0.00,,,0.00,Wunderground v.1.13,2013-02-11 16:12:00,
2013-02-11 11:17:00,18.9,10.4,29.96,NW,318,3.0,3.0,69,0.00,,,0.00,Wunderground v.1.13,2013-02-11 16:17:00,
2013-02-11 11:22:00,19.1,10.6,29.93,NW,311,2.0,2.0,69,0.00,,,0.00,Wunderground v.1.13,2013-02-11 16:22:00,
2013-02-11 11:27:00,19.2,10.7,29.93,NW,312,2.0,2.0,69,0.00,,,0.00,Wunderground v.1.13,2013-02-11 16:27:00,
2013-02-11 11:32:00,19.4,10.9,29.93,NW,312,1.0,1.0,69,0.00,,,0.00,Wunderground v.1.13,2013-02-11 16:32:00,
2013-02-11 11:37:00,19.5,11.3,29.93,NW,312,1.0,1.0,70,0.00,,,0.00,Wunderground v.1.13,2013-02-11 16:37:00,
2013-02-11 11:42:00,19.9,12.0,29.93,NW,312,1.0,1.0,71,0.00,,,0.00,Wunderground v.1.13,2013-02-11 16:42:00,
2013-02-11 11:52:00,20.0,12.4,29.91,NW,312,1.0,1.0,72,0.00,,,0.00,Wunderground v.1.13,2013-02-11 16:52:00,
2013-02-11 11:57:00,20.0,12.4,29.91,NW,312,2.0,2.0,72,0.00,,,0.00,Wunderground v.1.13,2013-02-11 16:57:00,
2013-02-11 12:03:00,20.2,12.9,29.91,NW,312,1.0,1.0,73,0.00,,,0.00,Wunderground v.1.13,2013-02-11 17:03:00,
2013-02-11 12:07:00,20.2,12.9,29.89,NW,312,0.0,0.0,73,0.00,,,0.00,Wunderground v.1.13,2013-02-11 17:07:00,
2013-02-11 12:12:00,20.5,13.5,29.89,NW,312,0.0,1.0,74,0.00,,,0.00,Wunderground v.1.13,2013-02-11 17:12:00,
2013-02-11 12:17:00,20.6,13.9,29.89,NW,312,0.0,0.0,75,0.00,,,0.00,Wunderground v.1.13,2013-02-11 17:17:00,
2013-02-11 12:22:00,20.8,14.1,29.87,NW,312,1.0,1.0,75,0.00,,,0.00,Wunderground v.1.13,2013-02-11 17:22:00,
2013-02-11 12:27:00,20.8,14.1,29.87,NW,312,1.0,1.0,75,0.00,,,0.00,Wunderground v.1.13,2013-02-11 17:27:00,
2013-02-11 12:32:00,21.0,14.9,29.87,NW,312,1.0,1.0,77,0.00,,,0.00,Wunderground v.1.13,2013-02-11 17:32:00,
2013-02-11 12:37:00,21.3,15.2,29.85,NW,312,0.0,0.0,77,0.00,,,0.00,Wunderground v.1.13,2013-02-11 17:37:00,
2013-02-11 12:42:00,21.4,15.6,29.85,NW,312,0.0,0.0,78,0.00,,,0.00,Wunderground v.1.13,2013-02-11 17:42:00,
2013-02-11 12:47:00,21.6,15.8,29.85,NW,312,1.0,1.0,78,0.00,,,0.00,Wunderground v.1.13,2013-02-11 17:47:00,
2013-02-11 12:57:00,22.1,16.9,29.82,NW,312,1.0,1.0,80,0.00,,,0.00,Wunderground v.1.13,2013-02-11 17:57:00,
2013-02-11 13:02:00,22.4,17.5,29.82,NW,311,0.0,0.0,81,0.00,,,0.00,Wunderground v.1.13,2013-02-11 18:02:00,
2013-02-11 13:07:00,22.7,17.7,29.82,NW,312,0.0,0.0,81,0.00,,,0.00,Wunderground v.1.13,2013-02-11 18:07:00,
2013-02-11 13:17:00,23.2,18.2,29.82,NW,312,0.0,0.0,81,0.00,,,0.00,Wunderground v.1.13,2013-02-11 18:17:00,
2013-02-11 13:22:00,23.3,18.3,29.81,NW,312,0.0,0.0,81,0.00,,,0.00,Wunderground v.1.13,2013-02-11 18:22:00,
2013-02-11 13:27:00,23.5,18.5,29.81,NW,312,1.0,2.0,81,0.00,,,0.00,Wunderground v.1.13,2013-02-11 18:27:00,
2013-02-11 13:32:00,23.5,18.5,29.81,NW,312,2.0,2.0,81,0.00,,,0.00,Wunderground v.1.13,2013-02-11 18:32:00,
2013-02-11 13:37:00,23.8,19.4,29.79,NW,312,2.0,2.0,83,0.00,,,0.00,Wunderground v.1.13,2013-02-11 18:37:00,
2013-02-11 13:42:00,23.9,19.5,29.79,NW,312,1.0,1.0,83,0.00,,,0.00,Wunderground v.1.13,2013-02-11 18:42:00,
2013-02-11 13:47:00,24.1,20.0,29.79,NW,312,1.0,1.0,84,0.00,,,0.00,Wunderground v.1.13,2013-02-11 18:47:00,
2013-02-11 13:52:00,24.2,20.1,29.78,NW,312,0.0,3.0,84,0.00,,,0.00,Wunderground v.1.13,2013-02-11 18:52:00,
2013-02-11 13:57:00,24.2,20.1,29.78,NW,312,1.0,1.0,84,0.00,,,0.00,Wunderground v.1.13,2013-02-11 18:57:00,
2013-02-11 14:02:00,24.4,20.3,29.78,NW,312,1.0,1.0,84,0.00,,,0.00,Wunderground v.1.13,2013-02-11 19:02:00,
2013-02-11 14:07:00,24.7,20.8,29.77,NW,312,0.0,0.0,85,0.00,,,0.00,Wunderground v.1.13,2013-02-11 19:07:00,
2013-02-11 14:12:00,24.7,20.8,29.77,NW,312,0.0,0.0,85,0.00,,,0.00,Wunderground v.1.13,2013-02-11 19:12:00,
2013-02-11 14:17:00,24.7,20.8,29.77,NW,312,0.0,1.0,85,0.00,,,0.00,Wunderground v.1.13,2013-02-11 19:17:00,
2013-02-11 14:22:00,24.7,21.1,29.75,NW,312,1.0,1.0,86,0.00,,,0.00,Wunderground v.1.13,2013-02-11 19:22:00,
2013-02-11 14:27:00,24.8,21.2,29.75,NW,312,1.0,1.0,86,0.00,,,0.00,Wunderground v.1.13,2013-02-11 19:27:00,
2013-02-11 14:32:00,24.8,21.5,29.75,NW,312,1.0,1.0,87,0.00,,,0.00,Wunderground v.1.13,2013-02-11 19:32:00,
2013-02-11 14:37:00,24.8,21.5,29.76,NW,312,0.0,0.0,87,0.00,,,0.00,Wunderground v.1.13,2013-02-11 19:37:00,
2013-02-11 14:42:00,25.0,21.7,29.76,NW,312,0.0,0.0,87,0.00,,,0.00,Wunderground v.1.13,2013-02-11 19:42:00,
2013-02-11 14:47:00,25.1,21.8,29.76,NW,312,0.0,0.0,87,0.00,,,0.00,Wunderground v.1.13,2013-02-11 19:47:00,
2013-02-11 14:52:00,25.1,21.8,29.75,NW,312,0.0,1.0,87,0.00,,,0.00,Wunderground v.1.13,2013-02-11 19:52:00,
2013-02-11 14:57:00,25.3,22.2,29.75,NW,312,0.0,0.0,88,0.00,,,0.00,Wunderground v.1.13,2013-02-11 19:57:00,
2013-02-11 15:03:00,25.3,22.2,29.75,NW,312,0.0,0.0,88,0.00,,,0.00,Wunderground v.1.13,2013-02-11 20:03:00,
2013-02-11 15:12:00,25.4,22.6,29.74,NW,312,1.0,1.0,89,0.00,,,0.00,Wunderground v.1.13,2013-02-11 20:12:00,
2013-02-11 15:17:00,25.6,22.8,29.74,NW,312,1.0,4.0,89,0.00,,,0.00,Wunderground v.1.13,2013-02-11 20:17:00,
2013-02-11 15:22:00,25.6,22.8,29.71,NW,312,2.0,2.0,89,0.00,,,0.00,Wunderground v.1.13,2013-02-11 20:22:00,
2013-02-11 15:27:00,25.7,23.2,29.71,NW,312,1.0,1.0,90,0.00,,,0.00,Wunderground v.1.13,2013-02-11 20:27:00,
2013-02-11 15:32:00,26.0,23.5,29.71,NW,312,0.0,0.0,90,0.00,,,0.00,Wunderground v.1.13,2013-02-11 20:32:00,
2013-02-11 15:37:00,26.1,23.6,29.71,NW,312,0.0,0.0,90,0.00,,,0.00,Wunderground v.1.13,2013-02-11 20:37:00,
2013-02-11 15:47:00,26.3,23.8,29.71,NW,312,0.0,0.0,90,0.00,,,0.00,Wunderground v.1.13,2013-02-11 20:47:00,
2013-02-11 15:52:00,26.3,23.5,29.69,NW,312,0.0,0.0,89,0.00,,,0.00,Wunderground v.1.13,2013-02-11 20:52:00,
2013-02-11 15:57:00,26.3,23.5,29.69,NW,312,0.0,1.0,89,0.00,,,0.00,Wunderground v.1.13,2013-02-11 20:57:00,
2013-02-11 16:02:00,26.1,23.3,29.69,NW,312,0.0,0.0,89,0.00,,,0.00,Wunderground v.1.13,2013-02-11 21:02:00,
2013-02-11 16:07:00,26.3,23.5,29.68,NW,312,0.0,0.0,89,0.00,,,0.00,Wunderground v.1.13,2013-02-11 21:07:00,
2013-02-11 16:12:00,26.3,23.5,29.68,NW,312,0.0,0.0,89,0.00,,,0.00,Wunderground v.1.13,2013-02-11 21:12:00,
2013-02-11 16:17:00,26.4,23.9,29.68,NW,312,0.0,0.0,90,0.00,,,0.00,Wunderground v.1.13,2013-02-11 21:17:00,
2013-02-11 16:22:00,26.4,23.9,29.68,NW,312,0.0,0.0,90,0.00,,,0.00,Wunderground v.1.13,2013-02-11 21:22:00,
2013-02-11 16:27:00,26.6,24.1,29.68,NW,312,0.0,0.0,90,0.00,,,0.00,Wunderground v.1.13,2013-02-11 21:27:00,
2013-02-11 16:32:00,26.6,24.1,29.68,NW,311,0.0,0.0,90,0.00,,,0.00,Wunderground v.1.13,2013-02-11 21:32:00,
2013-02-11 16:37:00,26.6,24.1,29.66,NW,312,0.0,0.0,90,0.00,,,0.00,Wunderground v.1.13,2013-02-11 21:37:00,
2013-02-11 16:42:00,26.6,23.8,29.66,NW,312,0.0,0.0,89,0.00,,,0.00,Wunderground v.1.13,2013-02-11 21:42:00,
2013-02-11 16:47:00,26.6,23.8,29.66,NW,312,0.0,0.0,89,0.00,,,0.00,Wunderground v.1.13,2013-02-11 21:47:00,
2013-02-11 16:52:00,26.4,23.9,29.66,NW,312,0.0,0.0,90,0.00,,,0.00,Wunderground v.1.13,2013-02-11 21:52:00,
2013-02-11 16:57:00,26.4,23.9,29.66,NW,312,0.0,0.0,90,0.00,,,0.00,Wunderground v.1.13,2013-02-11 21:57:00,
2013-02-11 17:03:00,26.4,23.9,29.66,NW,312,0.0,0.0,90,0.00,,,0.00,Wunderground v.1.13,2013-02-11 22:03:00,
2013-02-11 17:07:00,26.4,23.6,29.66,NW,312,0.0,0.0,89,0.00,,,0.00,Wunderground v.1.13,2013-02-11 22:07:00,
2013-02-11 17:12:00,26.4,23.9,29.66,NW,312,0.0,0.0,90,0.00,,,0.00,Wunderground v.1.13,2013-02-11 22:12:00,
2013-02-11 17:17:00,26.4,23.9,29.66,NW,312,0.0,0.0,90,0.00,,,0.00,Wunderground v.1.13,2013-02-11 22:17:00,
2013-02-11 17:22:00,26.4,23.6,29.64,NW,312,0.0,0.0,89,0.00,,,0.00,Wunderground v.1.13,2013-02-11 22:22:00,
2013-02-11 17:27:00,26.3,23.5,29.64,NW,312,0.0,0.0,89,0.00,,,0.00,Wunderground v.1.13,2013-02-11 22:27:00,
2013-02-11 17:32:00,26.3,23.5,29.64,NW,312,0.0,0.0,89,0.00,,,0.00,Wunderground v.1.13,2013-02-11 22:32:00,
2013-02-11 17:37:00,26.3,23.8,29.66,NW,312,0.0,0.0,90,0.00,,,0.00,Wunderground v.1.13,2013-02-11 22:37:00,
2013-02-11 17:42:00,26.3,23.8,29.66,NW,312,0.0,0.0,90,0.00,,,0.00,Wunderground v.1.13,2013-02-11 22:42:00,
2013-02-11 17:47:00,26.3,24.0,29.66,NW,312,0.0,0.0,91,0.00,,,0.00,Wunderground v.1.13,2013-02-11 22:47:00,
2013-02-11 17:52:00,26.3,24.0,29.64,NW,312,0.0,0.0,91,0.00,,,0.00,Wunderground v.1.13,2013-02-11 22:52:00,
2013-02-11 17:57:00,26.3,24.0,29.64,NW,312,0.0,0.0,91,0.00,,,0.00,Wunderground v.1.13,2013-02-11 22:57:00,
2013-02-11 18:02:00,26.4,24.1,29.64,NW,312,0.0,0.0,91,0.00,,,0.00,Wunderground v.1.13,2013-02-11 23:02:00,
2013-02-11 18:07:00,26.3,24.3,29.63,NW,312,0.0,0.0,92,0.00,,,0.00,Wunderground v.1.13,2013-02-11 23:07:00,
2013-02-11 18:17:00,26.4,24.4,29.63,NW,312,0.0,0.0,92,0.00,,,0.00,Wunderground v.1.13,2013-02-11 23:17:00,
2013-02-11 18:27:00,26.3,24.3,29.63,NW,312,0.0,0.0,92,0.00,,,0.00,Wunderground v.1.13,2013-02-11 23:27:00,
2013-02-11 18:32:00,26.3,24.3,29.63,NW,312,0.0,0.0,92,0.00,,,0.00,Wunderground v.1.13,2013-02-11 23:32:00,
2013-02-11 18:37:00,26.3,24.6,29.62,NW,312,0.0,0.0,93,0.00,,,0.00,Wunderground v.1.13,2013-02-11 23:37:00,
2013-02-11 18:42:00,26.3,24.6,29.62,NW,312,0.0,1.0,93,0.00,,,0.00,Wunderground v.1.13,2013-02-11 23:42:00,
2013-02-11 18:47:00,26.1,24.4,29.62,NW,312,0.0,1.0,93,0.00,,,0.00,Wunderground v.1.13,2013-02-11 23:47:00,
2013-02-11 18:52:00,26.1,24.4,29.62,NW,312,0.0,0.0,93,0.00,,,0.00,Wunderground v.1.13,2013-02-11 23:52:00,
2013-02-11 18:57:00,26.1,24.4,29.62,NW,312,0.0,0.0,93,0.00,,,0.00,Wunderground v.1.13,2013-02-11 23:57:00,
2013-02-11 19:03:00,26.1,24.6,29.62,NW,312,0.0,0.0,94,0.00,,,0.00,Wunderground v.1.13,2013-02-12 00:03:00,
2013-02-11 19:07:00,26.3,24.8,29.61,NW,312,0.0,0.0,94,0.00,,,0.00,Wunderground v.1.13,2013-02-12 00:07:00,
2013-02-11 19:12:00,26.1,24.6,29.61,NW,312,0.0,0.0,94,0.00,,,0.00,Wunderground v.1.13,2013-02-12 00:12:00,
2013-02-11 19:17:00,26.3,24.8,29.61,NW,312,0.0,0.0,94,0.00,,,0.00,Wunderground v.1.13,2013-02-12 00:17:00,
2013-02-11 19:22:00,26.3,25.1,29.60,NW,311,0.0,0.0,95,0.00,,,0.00,Wunderground v.1.13,2013-02-12 00:22:00,
2013-02-11 19:27:00,26.3,25.1,29.60,NW,312,0.0,0.0,95,0.00,,,0.00,Wunderground v.1.13,2013-02-12 00:27:00,
2013-02-11 19:32:00,26.3,25.1,29.60,NW,312,0.0,0.0,95,0.00,,,0.00,Wunderground v.1.13,2013-02-12 00:32:00,
2013-02-11 19:37:00,26.3,25.1,29.59,NW,312,0.0,0.0,95,0.00,,,0.00,Wunderground v.1.13,2013-02-12 00:37:00,
2013-02-11 19:42:00,26.3,25.1,29.59,NW,312,0.0,0.0,95,0.00,,,0.00,Wunderground v.1.13,2013-02-12 00:42:00,
2013-02-11 19:47:00,26.3,25.1,29.59,NW,312,0.0,0.0,95,0.00,,,0.00,Wunderground v.1.13,2013-02-12 00:47:00,
2013-02-11 19:52:00,26.3,25.1,29.58,NW,312,0.0,0.0,95,0.00,,,0.00,Wunderground v.1.13,2013-02-12 00:52:00,
2013-02-11 20:03:00,26.3,25.3,29.58,NW,312,0.0,0.0,96,0.00,,,0.00,Wunderground v.1.13,2013-02-12 01:03:00,
2013-02-11 20:12:00,26.3,25.3,29.59,NW,312,0.0,0.0,96,0.00,,,0.00,Wunderground v.1.13,2013-02-12 01:12:00,
2013-02-11 20:17:00,26.3,25.3,29.59,NW,312,0.0,0.0,96,0.00,,,0.00,Wunderground v.1.13,2013-02-12 01:17:00,
2013-02-11 20:22:00,26.3,25.3,29.59,NW,312,0.0,0.0,96,0.00,,,0.00,Wunderground v.1.13,2013-02-12 01:22:00,
2013-02-11 20:27:00,26.3,25.6,29.59,NW,312,0.0,0.0,97,0.00,,,0.00,Wunderground v.1.13,2013-02-12 01:27:00,
2013-02-11 20:32:00,26.4,25.7,29.59,NW,312,0.0,0.0,97,0.00,,,0.00,Wunderground v.1.13,2013-02-12 01:32:00,
2013-02-11 20:42:00,26.3,25.6,29.59,NW,312,1.0,1.0,97,0.00,,,0.00,Wunderground v.1.13,2013-02-12 01:42:00,
2013-02-11 20:47:00,26.3,25.6,29.59,NW,312,0.0,0.0,97,0.00,,,0.00,Wunderground v.1.13,2013-02-12 01:47:00,
2013-02-11 20:57:00,26.3,25.8,29.59,NW,312,0.0,0.0,98,0.00,,,0.00,Wunderground v.1.13,2013-02-12 01:57:00,
2013-02-11 21:02:00,26.4,25.9,29.59,NW,311,0.0,0.0,98,0.00,,,0.00,Wunderground v.1.13,2013-02-12 02:02:00,
2013-02-11 21:07:00,26.4,25.9,29.58,NW,312,0.0,0.0,98,0.00,,,0.00,Wunderground v.1.13,2013-02-12 02:07:00,
2013-02-11 21:17:00,26.6,26.1,29.58,NW,312,0.0,0.0,98,0.00,,,0.00,Wunderground v.1.13,2013-02-12 02:17:00,
2013-02-11 21:22:00,26.6,26.1,29.57,NW,312,0.0,2.0,98,0.00,,,0.00,Wunderground v.1.13,2013-02-12 02:22:00,
2013-02-11 21:27:00,26.6,26.1,29.57,NW,312,1.0,2.0,98,0.00,,,0.00,Wunderground v.1.13,2013-02-12 02:27:00,
2013-02-11 21:32:00,26.6,26.1,29.57,NW,312,1.0,1.0,98,0.00,,,0.00,Wunderground v.1.13,2013-02-12 02:32:00,
2013-02-11 21:37:00,26.6,26.1,29.57,NW,312,1.0,1.0,98,0.00,,,0.00,Wunderground v.1.13,2013-02-12 02:37:00,
2013-02-11 21:42:00,26.7,26.2,29.57,NW,312,0.0,0.0,98,0.00,,,0.00,Wunderground v.1.13,2013-02-12 02:42:00,
2013-02-11 21:47:00,26.7,26.5,29.57,NW,312,0.0,0.0,99,0.00,,,0.00,Wunderground v.1.13,2013-02-12 02:47:00,
2013-02-11 21:52:00,26.9,26.7,29.56,NW,312,0.0,0.0,99,0.00,,,0.00,Wunderground v.1.13,2013-02-12 02:52:00,
2013-02-11 21:57:00,26.9,26.4,29.56,NW,312,0.0,0.0,98,0.00,,,0.00,Wunderground v.1.13,2013-02-12 02:57:00,
2013-02-11 22:02:00,26.9,26.7,29.56,NW,311,0.0,1.0,99,0.00,,,0.00,Wunderground v.1.13,2013-02-12 03:02:00,
2013-02-11 22:07:00,26.9,26.4,29.56,NW,312,1.0,1.0,98,0.00,,,0.00,Wunderground v.1.13,2013-02-12 03:07:00,
2013-02-11 22:12:00,26.9,26.7,29.56,East,88,1.0,1.0,99,0.00,,,0.00,Wunderground v.1.13,2013-02-12 03:12:00,
2013-02-11 22:17:00,26.9,26.7,29.56,East,88,1.0,1.0,99,0.00,,,0.00,Wunderground v.1.13,2013-02-12 03:17:00,
2013-02-11 22:27:00,26.9,26.4,29.55,East,88,0.0,0.0,98,0.00,,,0.00,Wunderground v.1.13,2013-02-12 03:27:00,
2013-02-11 22:32:00,26.9,26.4,29.55,East,88,0.0,0.0,98,0.00,,,0.00,Wunderground v.1.13,2013-02-12 03:32:00,
2013-02-11 22:37:00,26.9,26.4,29.56,East,88,0.0,0.0,98,0.00,,,0.00,Wunderground v.1.13,2013-02-12 03:37:00,
2013-02-11 22:42:00,26.9,26.7,29.56,East,88,0.0,0.0,99,0.00,,,0.00,Wunderground v.1.13,2013-02-12 03:42:00,
2013-02-11 22:47:00,26.9,26.7,29.56,East,88,0.0,0.0,99,0.00,,,0.00,Wunderground v.1.13,2013-02-12 03:47:00,
2013-02-11 22:52:00,26.9,26.7,29.56,SSE,162,0.0,2.0,99,0.00,,,0.00,Wunderground v.1.13,2013-02-12 03:52:00,
2013-02-11 22:57:00,27.0,26.8,29.56,East,97,1.0,1.0,99,0.00,,,0.00,Wunderground v.1.13,2013-02-12 03:57:00,
2013-02-11 23:03:00,27.0,26.8,29.56,North,357,1.0,1.0,99,0.00,,,0.00,Wunderground v.1.13,2013-02-12 04:03:00,
2013-02-11 23:07:00,27.2,27.0,29.56,North,357,1.0,1.0,99,0.00,,,0.00,Wunderground v.1.13,2013-02-12 04:07:00,
2013-02-11 23:12:00,27.3,27.1,29.56,North,357,0.0,0.0,99,0.00,,,0.00,Wunderground v.1.13,2013-02-12 04:12:00,
2013-02-11 23:17:00,27.3,27.1,29.56,North,357,0.0,0.0,99,0.00,,,0.00,Wunderground v.1.13,2013-02-12 04:17:00,
2013-02-11 23:22:00,27.3,27.1,29.56,North,357,0.0,0.0,99,0.00,,,0.00,Wunderground v.1.13,2013-02-12 04:22:00,
2013-02-11 23:27:00,27.3,27.1,29.56,North,357,0.0,0.0,99,0.00,,,0.00,Wunderground v.1.13,2013-02-12 04:27:00,
2013-02-11 23:32:00,27.3,27.1,29.56,North,357,0.0,1.0,99,0.00,,,0.00,Wunderground v.1.13,2013-02-12 04:32:00,
2013-02-11 23:37:00,27.5,27.3,29.55,North,359,1.0,1.0,99,0.00,,,0.00,Wunderground v.1.13,2013-02-12 04:37:00,
2013-02-11 23:42:00,27.5,27.3,29.55,North,359,1.0,2.0,99,0.00,,,0.00,Wunderground v.1.13,2013-02-12 04:42:00,
2013-02-11 23:47:00,27.6,27.4,29.55,North,359,1.0,1.0,99,0.00,,,0.00,Wunderground v.1.13,2013-02-12 04:47:00,
2013-02-11 23:52:00,27.9,27.9,29.54,ENE,69,1.0,1.0,100,0.00,,,0.00,Wunderground v.1.13,2013-02-12 04:52:00,
2013-02-11 23:57:00,28.1,28.1,29.54,ENE,71,2.0,2.0,100,0.00,,,0.00,Wunderground v.1.13,2013-02-12 04:57:00,